Airway Heights, Washington
Current Conditions -  °F | °C
As of 11:53 PM on Thursday 30 Oct 2014 (Local Time) from KGEG Reporting Station
Overcast Overcast  
Wind Chill: 45°   Ceiling: 20000
Heat Index: 49°   Visibility: 10mi
Dew Point: 43°   Wind: 9mph
Humidity: 80%   Direction: 50°NE
Pressure: 29.79"   Gusts: NA
Location:  47.64°N, 117.59°W
Report Text: KGEG 310653Z 05008KT 10SM SCT150 OVC200 09/06 A2979 RMK AO2 SLP089 T00940061
Loading
Personal Weather Stations






























Interactive Weather Map
Tropical Storm Tracking
New forecast layout! Learn more

10-Day Weather Forecast

Advertisements
Track Severe Weather on mobile